Terminal Aerodrome Forecast
Issued by NWS

Home | Current Version | Previous Version | Text Only | Print | Product List | Glossary On
Versions: 1 2 3 4 5 6 7 8 9 10 11 12 13 14 15 16 17 18 19 20 21 22
000
FTUS43 KAPX 241810 AAA
TAFAPN
TAF AMD
KAPN 241810Z 2418/2518 33013KT P6SM VCTS BKN050CB
      TEMPO 2418/2420 4SM -TSRA SCT025 BKN040CB OVC090
     FM242000 01005KT P6SM VCTS BKN050CB
     FM242300 16004KT P6SM VCTS BKN050CB
     FM250100 VRB04KT P6SM BKN050
     FM250600 VRB03KT P6SM VCSH BKN040
     FM251400 29006KT P6SM VCSH OVC025=

USA.gov is the U.S. government's official web portal to all federal, state and local government web resources and services.